Bukoba Airport


Codes: HTBU/BKZ
Name: Bukoba Airport
City: Bukoba
Country: Tanzania
Elevation: 3745 ft.
Wikipedia:

Photos at Bukoba Airport


   Photos courtesy of SpottingLog. You can add your own sightings and photos by signing up for a free trial today.



No photos found.

Weather at Bukoba Airport


Time (UTC)DescriptionTempratureWindCloud coverageVisibilityPressureHumidity
21-Feb-2024 03:00Light Rain21°C4 mph, SW85%10000m1011hPa74%
21-Feb-2024 06:00Light Rain22°C7 mph, S87%10000m1011hPa72%
21-Feb-2024 09:00Light Rain25°C7 mph, SE86%10000m1011hPa61%
21-Feb-2024 12:00Broken Clouds27°C9 mph, SE60%10000m1008hPa54%
21-Feb-2024 15:00Broken Clouds26°C7 mph, SE79%10000m1008hPa61%
21-Feb-2024 18:00Overcast Clouds22°C9 mph, S88%10000m1008hPa76%
21-Feb-2024 21:00Overcast Clouds22°C7 mph, W100%10000m1009hPa71%
22-Feb-2024 00:00Overcast Clouds23°C4 mph, S100%10000m1007hPa64%
22-Feb-2024 03:00Light Rain23°C2 mph, NE100%10000m1009hPa70%
22-Feb-2024 06:00Light Rain24°C2 mph, SW100%10000m1011hPa69%
22-Feb-2024 09:00Light Rain27°C7 mph, SE92%10000m1010hPa57%
22-Feb-2024 12:00Overcast Clouds27°C9 mph, E85%10000m1007hPa56%
22-Feb-2024 15:00Overcast Clouds25°C7 mph, SE100%10000m1007hPa64%
22-Feb-2024 18:00Overcast Clouds22°C9 mph, S100%10000m1008hPa77%
22-Feb-2024 21:00Overcast Clouds22°C4 mph, SW100%10000m1009hPa73%
23-Feb-2024 00:00Overcast Clouds21°C2 mph, S100%10000m1009hPa73%
23-Feb-2024 03:00Light Rain21°C2 mph, S76%10000m1011hPa76%
23-Feb-2024 06:00Broken Clouds25°C4 mph, S53%10000m1011hPa67%
23-Feb-2024 09:00Broken Clouds27°C11 mph, SE67%10000m1011hPa58%
23-Feb-2024 12:00Broken Clouds27°C9 mph, SE74%10000m1008hPa55%
23-Feb-2024 15:00Broken Clouds25°C7 mph, SE60%10000m1008hPa60%
23-Feb-2024 18:00Scattered Clouds22°C7 mph, S42%10000m1009hPa74%
23-Feb-2024 21:00Scattered Clouds23°C4 mph, S33%10000m1010hPa68%
24-Feb-2024 00:00Scattered Clouds22°C4 mph, SE49%10000m1010hPa71%
24-Feb-2024 03:00Light Rain21°C4 mph, SW33%10000m1012hPa81%
24-Feb-2024 06:00Light Rain23°C4 mph, SW28%10000m1014hPa72%
24-Feb-2024 09:00Broken Clouds27°C9 mph, S81%10000m1012hPa59%
24-Feb-2024 12:00Overcast Clouds28°C11 mph, SE91%10000m1009hPa51%
24-Feb-2024 15:00Broken Clouds25°C9 mph, SE79%10000m1008hPa60%
24-Feb-2024 18:00Overcast Clouds22°C4 mph, SE88%10000m1011hPa76%
24-Feb-2024 21:00Overcast Clouds24°C7 mph, SE100%10000m1012hPa71%
25-Feb-2024 00:00Light Rain22°C4 mph, SE100%10000m1011hPa81%
25-Feb-2024 03:00Light Rain22°C2 mph, SE100%10000m1012hPa80%
25-Feb-2024 06:00Overcast Clouds23°C2 mph, S98%10000m1013hPa76%
25-Feb-2024 09:00Scattered Clouds27°C7 mph, SE42%10000m1012hPa58%
25-Feb-2024 12:00Scattered Clouds27°C9 mph, SE42%10000m1009hPa58%
25-Feb-2024 15:00Scattered Clouds25°C11 mph, SE32%10000m1008hPa65%
25-Feb-2024 18:00Scattered Clouds23°C4 mph, S50%10000m1010hPa77%
25-Feb-2024 21:00Overcast Clouds22°C7 mph, S91%10000m1011hPa74%
26-Feb-2024 00:00Light Rain22°C4 mph, S94%10000m1010hPa69%